Time;durP1;ratioP1;P1;durP2;ratioP2;P2;SDS_P1;SDS_P2;PMS_P1;PMS_P2;Temp;Humidity;BMP_temperature;BMP_pressure;BME280_temperature;BME280_humidity;BME280_pressure;Samples;Min_cycle;Max_cycle;Signal;HPM_P1;HPM_P2
2022/08/09 00:01:47;;;;;;;6.03;5.43;;;24.80;99.90;;;;;;6246094;23;20130;-78
2022/08/09 00:04:20;;;;;;;6.10;5.70;;;24.80;99.90;;;;;;6245011;23;20027;-78
2022/08/09 00:06:46;;;;;;;6.53;6.03;;;24.80;99.90;;;;;;6246398;23;20000;-78
2022/08/09 00:09:14;;;;;;;5.63;5.30;;;24.80;99.90;;;;;;6244853;23;20644;-78
2022/08/09 00:11:40;;;;;;;6.57;6.05;;;24.80;99.90;;;;;;6245812;23;20001;-78
2022/08/09 00:14:07;;;;;;;6.28;5.88;;;24.80;99.90;;;;;;6245710;23;20010;-78
2022/08/09 00:16:33;;;;;;;5.93;5.40;;;24.70;99.90;;;;;;6244372;23;19996;-78
2022/08/09 00:18:59;;;;;;;7.93;6.15;;;24.70;99.90;;;;;;6244203;23;20339;-78
2022/08/09 00:21:25;;;;;;;6.60;6.10;;;24.80;99.90;;;;;;6243731;23;20004;-78
2022/08/09 00:23:51;;;;;;;6.22;5.72;;;24.80;99.90;;;;;;6243280;23;20004;-78
2022/08/09 00:26:17;;;;;;;6.90;6.40;;;24.70;99.90;;;;;;6243811;23;20024;-78
2022/08/09 00:28:43;;;;;;;10.57;6.97;;;24.70;99.90;;;;;;6244311;23;20034;-78
2022/08/09 00:31:08;;;;;;;6.30;5.70;;;24.80;99.90;;;;;;6245847;23;20015;-78
2022/08/09 00:33:38;;;;;;;6.22;5.70;;;24.80;99.90;;;;;;6245888;23;20340;-78
2022/08/09 00:36:04;;;;;;;7.28;6.43;;;24.80;99.90;;;;;;6246249;23;20129;-78
2022/08/09 00:38:30;;;;;;;6.78;6.28;;;24.80;99.90;;;;;;6246083;23;20000;-78
2022/08/09 00:40:56;;;;;;;6.82;6.22;;;24.80;99.90;;;;;;6218810;23;20059;-78
2022/08/09 00:43:22;;;;;;;5.72;5.32;;;24.80;99.90;;;;;;6245560;23;20003;-78
2022/08/09 00:45:48;;;;;;;6.22;5.70;;;24.70;99.90;;;;;;6245931;23;20054;-78
2022/08/09 00:48:14;;;;;;;7.50;5.97;;;24.70;99.90;;;;;;6219058;23;20000;-78
2022/08/09 00:50:40;;;;;;;10.80;6.70;;;24.60;99.90;;;;;;6245814;23;20007;-78
2022/08/09 00:53:06;;;;;;;7.50;6.85;;;24.70;99.90;;;;;;6218955;23;20015;-78
2022/08/09 00:55:35;;;;;;;6.65;6.05;;;24.70;99.90;;;;;;6245670;23;20075;-77
2022/08/09 00:58:00;;;;;;;5.55;5.13;;;24.70;99.90;;;;;;6218048;23;20008;-78
2022/08/09 01:00:27;;;;;;;6.28;5.65;;;24.60;99.90;;;;;;6217589;23;20039;-78
2022/08/09 01:03:15;;;;;;;6.50;6.03;;;24.60;99.90;;;;;;6244256;23;19996;-78
2022/08/09 01:05:46;;;;;;;6.70;6.10;;;24.60;99.90;;;;;;6244941;23;20007;-78
2022/08/09 01:08:45;;;;;;;6.13;5.63;;;24.60;99.90;;;;;;6244447;23;20375;-78
2022/08/09 01:11:31;;;;;;;6.20;5.60;;;24.50;99.90;;;;;;6217449;23;20004;-78
2022/08/09 01:14:06;;;;;;;6.88;5.10;;;24.50;99.90;;;;;;6244706;23;20004;-78
2022/08/09 01:16:40;;;;;;;6.07;5.65;;;24.50;99.90;;;;;;6219076;23;20035;-78
2022/08/09 01:19:21;;;;;;;8.32;6.40;;;24.50;99.90;;;;;;6218878;23;20012;-78
2022/08/09 01:21:56;;;;;;;6.13;5.72;;;24.50;99.90;;;;;;6218598;23;20019;-78
2022/08/09 01:24:36;;;;;;;6.43;5.93;;;24.50;99.90;;;;;;6218776;23;20336;-78
2022/08/09 01:27:09;;;;;;;6.20;5.70;;;24.50;99.90;;;;;;6245783;23;20027;-78
2022/08/09 01:29:34;;;;;;;7.10;6.50;;;24.50;99.90;;;;;;6218889;23;20001;-78
2022/08/09 01:32:03;;;;;;;6.25;5.60;;;24.50;99.90;;;;;;6235002;23;20031;-78
2022/08/09 01:34:30;;;;;;;6.57;5.90;;;24.40;99.90;;;;;;6244332;23;20015;-78
2022/08/09 01:36:59;;;;;;;7.40;5.65;;;24.50;99.90;;;;;;6244526;23;20079;-78
2022/08/09 01:39:27;;;;;;;6.25;5.65;;;24.40;99.90;;;;;;6244321;23;20011;-78
2022/08/09 01:41:54;;;;;;;5.57;5.07;;;24.50;99.90;;;;;;6246046;23;20007;-78
2022/08/09 01:44:22;;;;;;;6.28;5.78;;;24.50;99.90;;;;;;6244583;23;20443;-77
2022/08/09 01:46:49;;;;;;;6.05;5.55;;;24.50;99.90;;;;;;6244365;23;20058;-78
2022/08/09 01:49:17;;;;;;;5.80;5.40;;;24.40;99.90;;;;;;6244361;23;20309;-78
2022/08/09 01:51:48;;;;;;;6.50;5.90;;;24.30;99.90;;;;;;6246059;23;20004;-78
2022/08/09 01:54:14;;;;;;;;;;;24.30;99.90;;;;;;6244596;23;20083;-78
2022/08/09 01:56:42;;;;;;;6.35;5.70;;;24.30;99.90;;;;;;6245695;22;19979;-78
2022/08/09 01:59:11;;;;;;;6.38;5.75;;;24.20;99.90;;;;;;6243931;23;20324;-78
2022/08/09 02:01:39;;;;;;;6.38;5.90;;;24.20;99.90;;;;;;6245451;23;20058;-78
2022/08/09 02:04:06;;;;;;;6.95;6.40;;;24.20;99.90;;;;;;6244059;23;20007;-77
2022/08/09 02:09:21;;;;;;;6.43;5.93;;;24.10;99.90;;;;;;6247906;23;20019;-78
2022/08/09 02:11:47;;;;;;;6.00;5.50;;;24.10;99.90;;;;;;6247537;23;20023;-78
2022/08/09 02:14:16;;;;;;;5.65;5.15;;;24.10;99.90;;;;;;6245997;23;20078;-78
2022/08/09 02:16:44;;;;;;;5.80;5.40;;;24.00;99.90;;;;;;6247496;23;20436;-78
2022/08/09 02:19:09;;;;;;;6.45;5.50;;;24.00;99.90;;;;;;6247135;23;20439;-78
2022/08/09 02:21:48;;;;;;;5.97;5.47;;;24.10;99.90;;;;;;6245534;23;20095;-78
2022/08/09 02:24:19;;;;;;;6.97;5.80;;;24.00;99.90;;;;;;6245698;23;20004;-78
2022/08/09 02:26:46;;;;;;;5.85;5.45;;;24.10;99.90;;;;;;6245646;23;20007;-77
2022/08/09 02:29:19;;;;;;;6.28;5.75;;;24.10;99.90;;;;;;6247296;23;19996;-78
2022/08/09 02:31:47;;;;;;;5.80;5.32;;;23.90;99.90;;;;;;6246807;23;20012;-78
2022/08/09 02:34:25;;;;;;;5.82;5.35;;;23.90;99.90;;;;;;6220324;23;20008;-78
2022/08/09 02:36:53;;;;;;;5.50;5.18;;;24.00;99.90;;;;;;6247648;23;20000;-78
2022/08/09 02:39:23;;;;;;;5.70;5.30;;;24.10;99.90;;;;;;6219878;23;20012;-78
2022/08/09 02:41:57;;;;;;;6.07;5.57;;;24.10;99.90;;;;;;6219890;23;20506;-78
2022/08/09 02:44:30;;;;;;;6.07;5.60;;;24.10;99.90;;;;;;6247230;23;19996;-78
2022/08/09 02:46:59;;;;;;;6.07;5.47;;;24.10;99.90;;;;;;6220187;23;20000;-78
2022/08/09 02:49:25;;;;;;;7.30;5.50;;;24.10;99.90;;;;;;6220256;23;20003;-78
2022/08/09 02:51:56;;;;;;;5.68;5.13;;;24.00;99.90;;;;;;6246939;23;20344;-78
2022/08/09 02:54:23;;;;;;;5.55;5.15;;;24.00;99.90;;;;;;6220162;23;20376;-78
2022/08/09 02:56:51;;;;;;;5.72;5.28;;;24.00;99.90;;;;;;6220284;23;20378;-78
2022/08/09 02:59:19;;;;;;;5.55;5.20;;;24.00;99.90;;;;;;6220098;23;20066;-77
2022/08/09 03:01:45;;;;;;;5.20;4.80;;;23.90;99.90;;;;;;6219968;23;20008;-78
2022/08/09 03:04:13;;;;;;;5.85;5.35;;;24.00;99.90;;;;;;6246863;23;20003;-78
2022/08/09 03:06:40;;;;;;;5.80;5.40;;;23.90;99.90;;;;;;6246664;23;20000;-77
2022/08/09 03:09:08;;;;;;;6.60;5.22;;;23.90;99.90;;;;;;6247100;23;20054;-78
2022/08/09 03:11:34;;;;;;;6.18;5.78;;;23.90;99.90;;;;;;6246971;23;20432;-77
2022/08/09 03:14:01;;;;;;;5.32;4.82;;;23.90;99.90;;;;;;6246903;23;20000;-78
2022/08/09 03:16:28;;;;;;;5.88;5.32;;;23.90;99.90;;;;;;6246680;23;20440;-77
2022/08/09 03:18:54;;;;;;;5.50;5.20;;;23.90;99.90;;;;;;6246783;23;20004;-78
2022/08/09 03:21:23;;;;;;;5.82;5.25;;;23.90;99.90;;;;;;6246655;23;20059;-78
2022/08/09 03:23:49;;;;;;;5.63;5.13;;;23.90;99.90;;;;;;6220041;23;20027;-78
2022/08/09 03:26:17;;;;;;;5.82;5.43;;;23.90;99.90;;;;;;6246855;23;20000;-77
2022/08/09 03:28:45;;;;;;;6.20;5.70;;;23.80;99.90;;;;;;6219730;23;20471;-78
2022/08/09 03:31:11;;;;;;;5.45;5.10;;;23.80;99.90;;;;;;6225467;23;20044;-78
2022/08/09 03:33:38;;;;;;;8.00;5.68;;;23.70;99.90;;;;;;6246678;23;20008;-78
2022/08/09 03:36:06;;;;;;;6.85;5.63;;;23.70;99.90;;;;;;6245033;23;20008;-78
2022/08/09 03:38:33;;;;;;;5.80;5.28;;;23.80;99.90;;;;;;6246533;23;20000;-78
2022/08/09 03:40:59;;;;;;;5.30;4.90;;;23.80;99.90;;;;;;6246603;23;20423;-78
2022/08/09 03:43:26;;;;;;;6.05;5.65;;;23.80;99.90;;;;;;6246771;23;19996;-78
2022/08/09 03:45:52;;;;;;;5.65;5.15;;;23.70;99.90;;;;;;6246594;22;19996;-78
2022/08/09 03:48:22;;;;;;;5.47;4.97;;;23.70;99.90;;;;;;6246507;23;20000;-78
2022/08/09 03:50:51;;;;;;;5.32;4.93;;;23.60;99.90;;;;;;6245119;23;20083;-78
2022/08/09 03:53:21;;;;;;;7.13;5.97;;;23.60;99.90;;;;;;6246703;23;20004;-78
2022/08/09 03:55:47;;;;;;;5.43;5.03;;;23.60;99.90;;;;;;6245203;23;20008;-78
2022/08/09 03:58:14;;;;;;;5.43;5.03;;;23.60;99.90;;;;;;6246361;23;20003;-78
2022/08/09 04:00:41;;;;;;;5.18;4.88;;;23.60;99.90;;;;;;6246445;23;20040;-77
2022/08/09 04:03:11;;;;;;;5.65;5.25;;;23.60;99.90;;;;;;6246184;23;19996;-78
2022/08/09 04:05:37;;;;;;;6.20;5.68;;;23.50;99.90;;;;;;6244709;23;20428;-78
2022/08/09 04:08:03;;;;;;;5.20;4.80;;;23.40;99.90;;;;;;6246479;23;20007;-78
2022/08/09 04:10:28;;;;;;;5.45;5.05;;;23.40;99.90;;;;;;6244668;23;20063;-78
2022/08/09 04:12:54;;;;;;;5.65;5.13;;;23.30;99.90;;;;;;6244249;23;20015;-78
2022/08/09 04:15:22;;;;;;;6.15;5.65;;;23.30;99.90;;;;;;6245954;23;20078;-78
2022/08/09 04:17:49;;;;;;;6.18;5.78;;;23.30;99.90;;;;;;6244628;23;20012;-78
2022/08/09 04:20:16;;;;;;;5.95;5.45;;;23.20;99.90;;;;;;6246087;23;20008;-78
2022/08/09 04:22:43;;;;;;;6.43;5.90;;;23.30;99.90;;;;;;6246101;23;20027;-78
2022/08/09 04:25:09;;;;;;;5.85;5.28;;;23.30;99.90;;;;;;6244468;23;20053;-78
2022/08/09 04:27:40;;;;;;;5.30;4.90;;;23.20;99.90;;;;;;6244524;23;20004;-78
2022/08/09 04:30:24;;;;;;;6.03;5.63;;;23.20;99.90;;;;;;6244581;23;20007;-78
2022/08/09 04:32:50;;;;;;;5.63;5.22;;;23.30;99.90;;;;;;6244745;23;20332;-78
2022/08/09 04:35:16;;;;;;;6.45;5.80;;;23.30;99.90;;;;;;6246476;23;20050;-78
2022/08/09 04:37:42;;;;;;;7.40;5.60;;;23.30;99.90;;;;;;6246034;23;20000;-78
2022/08/09 04:40:08;;;;;;;6.28;5.65;;;23.20;99.90;;;;;;6245754;23;19996;-78
2022/08/09 04:42:35;;;;;;;6.07;5.47;;;23.10;99.90;;;;;;6244242;23;20000;-78
2022/08/09 04:45:01;;;;;;;5.78;5.28;;;23.00;99.90;;;;;;6244646;23;20079;-78
2022/08/09 04:47:27;;;;;;;6.93;5.75;;;23.10;99.90;;;;;;6246290;23;19996;-78
2022/08/09 04:49:54;;;;;;;5.68;5.18;;;23.10;99.90;;;;;;6245889;23;20082;-78
2022/08/09 04:52:24;;;;;;;9.18;4.97;;;23.10;99.90;;;;;;6245651;23;20431;-78
2022/08/09 04:54:51;;;;;;;5.97;5.50;;;23.00;99.90;;;;;;6245877;23;20008;-78
2022/08/09 04:57:20;;;;;;;5.85;5.35;;;23.10;99.90;;;;;;6244048;23;20004;-78
2022/08/09 04:59:49;;;;;;;5.97;5.47;;;23.10;99.90;;;;;;6243923;23;20008;-78
2022/08/09 05:02:14;;;;;;;5.35;4.85;;;23.00;99.90;;;;;;6245522;23;20007;-78
2022/08/09 05:04:41;;;;;;;7.05;5.70;;;23.00;99.90;;;;;;6245806;23;20000;-78
2022/08/09 05:07:07;;;;;;;6.40;5.78;;;23.00;99.90;;;;;;6243850;23;20001;-78
2022/08/09 05:09:32;;;;;;;5.65;5.25;;;23.00;99.90;;;;;;6243739;23;20007;-78
2022/08/09 05:11:58;;;;;;;5.53;5.13;;;23.10;99.90;;;;;;6245688;23;20069;-77
2022/08/09 05:14:24;;;;;;;8.23;5.55;;;23.10;99.90;;;;;;6245678;23;20004;-78
2022/08/09 05:16:50;;;;;;;6.45;5.93;;;23.20;99.90;;;;;;6244119;23;20321;-77
2022/08/09 05:19:20;;;;;;;5.43;5.03;;;23.30;99.90;;;;;;6244132;23;20015;-78
2022/08/09 05:21:47;;;;;;;7.68;5.32;;;23.30;99.90;;;;;;6245141;23;20428;-78
2022/08/09 05:24:14;;;;;;;5.60;5.20;;;23.40;99.90;;;;;;6245713;23;20396;-77
2022/08/09 05:26:39;;;;;;;6.57;6.07;;;23.40;99.90;;;;;;6245804;23;20075;-80
2022/08/09 05:29:05;;;;;;;5.82;5.43;;;23.50;99.90;;;;;;6244023;23;20369;-81
2022/08/09 05:31:31;;;;;;;6.18;5.68;;;23.50;99.90;;;;;;6243647;23;20047;-81
2022/08/09 05:33:57;;;;;;;6.72;5.50;;;23.60;99.90;;;;;;6244144;23;20004;-81
2022/08/09 05:36:22;;;;;;;7.25;6.65;;;23.60;99.90;;;;;;6245723;23;20000;-81
2022/08/09 05:38:48;;;;;;;6.05;5.45;;;23.70;99.90;;;;;;6245781;22;20079;-81
2022/08/09 05:41:14;;;;;;;5.95;5.35;;;23.70;99.90;;;;;;6243903;23;20340;-81
2022/08/09 05:43:43;;;;;;;5.45;5.05;;;23.70;99.90;;;;;;6247481;23;20055;-81
2022/08/09 05:46:10;;;;;;;6.75;5.30;;;23.70;99.90;;;;;;6246135;23;19996;-80
2022/08/09 05:48:36;;;;;;;6.10;5.55;;;23.80;99.90;;;;;;6245900;23;20050;-80
2022/08/09 05:51:01;;;;;;;5.60;5.18;;;23.80;99.90;;;;;;6247182;23;19996;-81
2022/08/09 05:53:27;;;;;;;5.85;5.32;;;23.90;99.90;;;;;;6247392;23;20001;-81
2022/08/09 05:55:53;;;;;;;5.97;5.20;;;24.00;99.90;;;;;;6247443;23;20000;-81
2022/08/09 05:58:18;;;;;;;6.85;5.45;;;24.00;99.90;;;;;;6247559;22;20000;-81
2022/08/09 06:00:44;;;;;;;6.85;5.85;;;24.10;99.90;;;;;;6247355;23;20000;-81
2022/08/09 06:03:10;;;;;;;6.20;5.70;;;24.10;99.90;;;;;;6247478;23;20083;-81
2022/08/09 06:05:36;;;;;;;6.30;5.70;;;24.20;99.90;;;;;;6247569;23;20024;-81
2022/08/09 06:08:01;;;;;;;7.13;5.20;;;24.30;99.90;;;;;;6245972;23;20051;-81
2022/08/09 06:10:39;;;;;;;5.95;5.45;;;24.30;99.90;;;;;;6246008;23;20083;-81
2022/08/09 06:13:11;;;;;;;5.20;4.80;;;24.40;99.90;;;;;;6245594;23;20008;-81
2022/08/09 06:15:37;;;;;;;5.18;4.78;;;24.40;99.90;;;;;;6245999;23;20012;-81
2022/08/09 06:18:03;;;;;;;5.97;5.35;;;24.40;99.90;;;;;;6247424;23;20466;-81
2022/08/09 06:20:30;;;;;;;5.50;4.70;;;24.40;99.90;;;;;;6245497;23;20043;-81
2022/08/09 06:22:57;;;;;;;5.43;4.95;;;24.40;99.90;;;;;;6245451;23;20011;-81
2022/08/09 06:25:23;;;;;;;4.90;4.50;;;24.40;99.90;;;;;;6245662;23;20058;-81
2022/08/09 06:27:48;;;;;;;4.95;4.55;;;24.50;99.90;;;;;;6247227;23;19996;-81
2022/08/09 06:30:14;;;;;;;5.00;4.63;;;24.50;99.90;;;;;;6245744;23;20010;-81
2022/08/09 06:32:41;;;;;;;5.82;4.85;;;24.60;99.90;;;;;;6246848;23;20016;-81
2022/08/09 06:35:08;;;;;;;4.72;4.45;;;24.60;99.90;;;;;;6247314;23;20023;-81
2022/08/09 06:37:34;;;;;;;6.78;4.75;;;24.60;99.90;;;;;;6220110;23;20505;-81
2022/08/09 06:39:59;;;;;;;4.90;4.50;;;24.70;99.90;;;;;;6247121;23;20071;-81
2022/08/09 06:42:25;;;;;;;5.28;4.57;;;24.80;99.90;;;;;;6220105;23;20008;-81
2022/08/09 06:44:51;;;;;;;5.50;5.10;;;24.90;99.90;;;;;;6247261;23;20003;-81
2022/08/09 06:47:16;;;;;;;5.85;4.70;;;24.90;99.90;;;;;;6247162;23;20495;-81
2022/08/09 06:49:42;;;;;;;4.40;4.03;;;25.00;99.90;;;;;;6220270;23;20061;-81
2022/08/09 06:52:08;;;;;;;4.25;4.00;;;25.00;99.90;;;;;;6246691;23;20042;-81
2022/08/09 06:54:34;;;;;;;4.15;3.20;;;25.10;99.40;;;;;;6245869;23;20007;-81
2022/08/09 06:57:00;;;;;;;3.88;3.65;;;25.30;99.40;;;;;;6245962;23;20004;-81
2022/08/09 06:59:26;;;;;;;3.63;3.33;;;25.30;99.00;;;;;;6219289;23;20440;-81
2022/08/09 07:01:52;;;;;;;3.38;3.05;;;25.40;98.40;;;;;;6246367;23;20058;-81
2022/08/09 07:04:18;;;;;;;4.85;3.90;;;25.40;97.70;;;;;;6246626;23;20000;-81
2022/08/09 07:06:43;;;;;;;4.90;3.47;;;25.50;97.20;;;;;;6246498;23;20371;-81
2022/08/09 07:09:11;;;;;;;3.55;3.35;;;25.50;97.20;;;;;;6219809;23;20000;-81
2022/08/09 07:11:37;;;;;;;3.85;3.55;;;25.50;98.00;;;;;;6246932;23;20007;-81
2022/08/09 07:14:02;;;;;;;3.80;3.60;;;25.50;97.70;;;;;;6246977;23;20004;-81
2022/08/09 07:16:28;;;;;;;3.97;3.50;;;25.70;98.30;;;;;;6220094;23;20031;-81
2022/08/09 07:18:54;;;;;;;3.42;3.20;;;25.70;98.90;;;;;;6219812;23;20340;-81
2022/08/09 07:21:20;;;;;;;3.65;3.35;;;25.80;99.00;;;;;;6219523;23;20051;-81
2022/08/09 07:23:46;;;;;;;5.28;3.45;;;25.80;99.00;;;;;;6219076;23;20455;-81
2022/08/09 07:26:12;;;;;;;3.40;3.20;;;25.90;96.30;;;;;;6246084;23;20424;-81
2022/08/09 07:28:37;;;;;;;3.33;3.13;;;25.90;97.10;;;;;;6246351;23;20000;-81
2022/08/09 07:31:04;;;;;;;5.80;3.90;;;25.90;96.80;;;;;;6223246;23;20348;-81
2022/08/09 07:33:32;;;;;;;6.03;3.00;;;25.90;96.50;;;;;;6246320;23;20432;-81
2022/08/09 07:36:01;;;;;;;3.38;2.75;;;26.10;97.40;;;;;;6246491;23;20000;-81
2022/08/09 07:38:26;;;;;;;3.47;3.17;;;26.20;97.30;;;;;;6246311;23;20010;-81
2022/08/09 07:40:53;;;;;;;2.78;2.58;;;26.20;96.70;;;;;;6244865;23;20418;-80
2022/08/09 07:43:18;;;;;;;3.20;3.00;;;26.20;96.50;;;;;;6245160;23;20053;-80
2022/08/09 07:45:44;;;;;;;3.00;2.90;;;26.30;96.20;;;;;;6246276;23;20067;-81
2022/08/09 07:48:11;;;;;;;5.25;3.30;;;26.40;96.40;;;;;;6245497;23;20027;-81
2022/08/09 07:50:39;;;;;;;2.80;2.60;;;26.40;96.30;;;;;;6244412;23;20038;-81
2022/08/09 07:53:06;;;;;;;3.10;2.90;;;26.40;96.90;;;;;;6246379;23;20010;-81
2022/08/09 07:55:33;;;;;;;3.40;3.20;;;26.50;96.10;;;;;;6246521;23;20000;-81
2022/08/09 07:57:59;;;;;;;3.38;3.17;;;26.50;96.50;;;;;;6244922;23;20050;-81
2022/08/09 08:00:24;;;;;;;3.53;3.22;;;26.50;96.30;;;;;;6246459;23;20428;-81
2022/08/09 08:02:50;;;;;;;3.40;3.20;;;26.50;96.20;;;;;;6244917;23;20010;-81
2022/08/09 08:05:16;;;;;;;3.17;2.97;;;26.50;95.70;;;;;;6246204;23;19996;-81
2022/08/09 08:07:42;;;;;;;4.00;3.03;;;26.50;95.70;;;;;;6244917;23;20000;-81
2022/08/09 08:10:08;;;;;;;3.00;2.80;;;26.50;96.90;;;;;;6245394;23;20332;-82
2022/08/09 08:12:36;;;;;;;3.15;2.75;;;26.50;97.20;;;;;;6246085;23;20080;-81
2022/08/09 08:15:01;;;;;;;4.28;3.22;;;26.60;96.70;;;;;;6244496;23;20094;-81
2022/08/09 08:17:27;;;;;;;5.03;3.40;;;26.70;96.20;;;;;;6244390;23;20157;-81
2022/08/09 08:19:53;;;;;;;3.50;3.20;;;26.60;95.50;;;;;;6246267;23;20019;-81
2022/08/09 08:22:19;;;;;;;3.47;2.83;;;26.70;96.70;;;;;;6245830;23;19996;-80
2022/08/09 08:24:46;;;;;;;4.25;3.17;;;26.70;95.80;;;;;;6246165;23;20006;-80
2022/08/09 08:27:12;;;;;;;4.18;3.08;;;26.80;95.60;;;;;;6246168;23;20079;-82
2022/08/09 08:29:37;;;;;;;2.78;2.58;;;26.80;94.90;;;;;;6241753;23;20031;-80
2022/08/09 08:32:03;;;;;;;4.80;3.03;;;26.80;95.10;;;;;;6242291;23;20039;-80
2022/08/09 08:34:29;;;;;;;3.25;3.08;;;26.80;95.60;;;;;;6242845;23;20004;-82
2022/08/09 08:36:55;;;;;;;4.03;3.63;;;26.80;95.50;;;;;;6216238;23;20004;-81
2022/08/09 08:39:20;;;;;;;3.53;3.22;;;26.80;96.30;;;;;;6216489;23;20335;-80
2022/08/09 08:41:46;;;;;;;3.35;3.05;;;26.80;94.80;;;;;;6241602;23;20000;-81
2022/08/09 08:44:13;;;;;;;3.60;3.28;;;26.70;94.40;;;;;;6242652;23;20007;-81
2022/08/09 08:46:40;;;;;;;3.63;3.42;;;26.70;94.20;;;;;;6216438;23;20000;-82
2022/08/09 08:49:10;;;;;;;3.92;3.67;;;26.70;94.50;;;;;;6241999;23;20000;-83
2022/08/09 08:51:37;;;;;;;3.67;3.38;;;26.70;94.90;;;;;;6241660;23;20004;-81
2022/08/09 08:54:07;;;;;;;3.72;3.50;;;26.80;94.80;;;;;;6242978;23;20146;-81
2022/08/09 08:56:37;;;;;;;3.50;3.20;;;26.80;94.80;;;;;;6242407;23;20032;-82
2022/08/09 08:59:05;;;;;;;3.80;3.45;;;26.80;95.10;;;;;;6242691;23;20007;-82
2022/08/09 09:01:34;;;;;;;3.47;3.28;;;26.90;94.20;;;;;;6216024;23;20559;-83
2022/08/09 09:04:02;;;;;;;3.50;3.20;;;27.00;94.50;;;;;;6242547;23;20000;-81
2022/08/09 09:06:30;;;;;;;7.05;3.47;;;27.00;93.70;;;;;;6242658;23;19997;-82
2022/08/09 09:08:57;;;;;;;3.70;3.50;;;27.00;93.80;;;;;;6243332;23;20332;-84
2022/08/09 09:11:23;;;;;;;3.47;3.25;;;27.00;93.60;;;;;;6242286;23;20382;-83
2022/08/09 09:13:53;;;;;;;3.65;3.28;;;27.00;93.60;;;;;;6216115;23;20027;-82
2022/08/09 09:16:19;;;;;;;3.45;3.25;;;27.10;94.40;;;;;;6243254;23;20008;-82
2022/08/09 09:18:45;;;;;;;4.13;3.83;;;27.10;93.70;;;;;;6242721;23;20442;-84
2022/08/09 09:21:14;;;;;;;3.55;3.25;;;27.20;94.00;;;;;;6242472;23;20032;-83
2022/08/09 09:23:44;;;;;;;3.70;3.50;;;27.30;94.10;;;;;;6242836;23;20061;-82
2022/08/09 09:26:14;;;;;;;3.50;3.20;;;27.30;93.50;;;;;;6242531;23;20075;-83
2022/08/09 09:28:47;;;;;;;4.15;3.88;;;27.40;93.50;;;;;;6215694;23;20000;-83
2022/08/09 09:31:17;;;;;;;3.40;3.17;;;27.40;94.10;;;;;;6242347;23;20432;-81
2022/08/09 09:33:43;;;;;;;4.60;3.80;;;27.50;93.50;;;;;;6216046;23;20375;-81
2022/08/09 09:36:11;;;;;;;3.38;3.10;;;27.50;93.70;;;;;;6242150;23;20424;-80
2022/08/09 09:38:46;;;;;;;3.70;3.40;;;27.50;94.10;;;;;;6242636;23;20004;-80
2022/08/09 09:41:32;;;;;;;6.30;3.97;;;27.50;93.10;;;;;;6242743;23;20527;-81
2022/08/09 09:44:02;;;;;;;3.38;3.17;;;27.50;93.10;;;;;;6242821;23;20074;-79
2022/08/09 09:46:42;;;;;;;5.65;4.07;;;27.50;92.90;;;;;;6243378;23;20046;-83
2022/08/09 09:49:15;;;;;;;3.47;3.28;;;27.50;93.30;;;;;;6215573;23;20028;-81
2022/08/09 09:51:41;;;;;;;3.63;3.33;;;27.50;92.70;;;;;;6215142;23;20552;-81
2022/08/09 09:54:17;;;;;;;3.58;3.38;;;27.50;93.00;;;;;;6242032;23;20000;-80
2022/08/09 09:56:46;;;;;;;3.65;3.35;;;27.60;93.20;;;;;;6215009;23;20028;-80
2022/08/09 09:59:14;;;;;;;7.93;4.13;;;27.60;92.80;;;;;;6216128;23;20009;-81
2022/08/09 10:01:44;;;;;;;4.22;3.92;;;27.70;92.20;;;;;;6242213;23;20004;-80
2022/08/09 10:04:18;;;;;;;4.03;3.72;;;27.60;92.50;;;;;;6242224;23;20011;-81
2022/08/09 10:06:46;;;;;;;3.92;3.30;;;27.70;92.40;;;;;;6242448;23;20049;-80
2022/08/09 10:09:14;;;;;;;3.55;3.33;;;27.80;94.80;;;;;;6243017;23;20005;-81
2022/08/09 10:11:40;;;;;;;3.50;3.30;;;27.90;94.90;;;;;;6242338;23;20010;-81
2022/08/09 10:14:23;;;;;;;6.32;3.70;;;27.90;94.70;;;;;;6216165;23;20313;-81
2022/08/09 10:16:49;;;;;;;3.33;3.03;;;27.90;93.80;;;;;;6245578;23;20000;-81
2022/08/09 10:19:15;;;;;;;3.20;3.00;;;28.00;93.00;;;;;;6241532;23;20004;-76
2022/08/09 10:21:49;;;;;;;4.35;3.47;;;28.00;93.50;;;;;;6240897;23;20006;-76
2022/08/09 10:24:17;;;;;;;4.22;3.83;;;28.20;92.30;;;;;;6241530;23;20031;-77
2022/08/09 10:26:45;;;;;;;3.53;3.15;;;28.20;92.00;;;;;;6241667;23;20055;-77
2022/08/09 10:29:14;;;;;;;4.47;4.07;;;28.20;93.00;;;;;;6242513;23;20079;-76
2022/08/09 10:31:40;;;;;;;3.85;3.35;;;28.50;93.20;;;;;;6242835;23;20019;-76
2022/08/09 10:34:10;;;;;;;5.50;3.75;;;28.60;93.10;;;;;;6216184;23;20011;-77
2022/08/09 10:36:36;;;;;;;3.83;3.63;;;28.60;92.40;;;;;;6243068;23;20001;-77
2022/08/09 10:39:04;;;;;;;4.00;3.70;;;28.60;92.50;;;;;;6242844;23;20465;-77
2022/08/09 10:41:34;;;;;;;4.78;3.30;;;28.60;92.30;;;;;;6243301;23;20069;-76
2022/08/09 10:44:00;;;;;;;4.75;3.83;;;28.70;92.40;;;;;;6243860;23;20428;-76
2022/08/09 10:46:41;;;;;;;3.63;3.42;;;28.70;93.00;;;;;;6242838;23;20087;-76
2022/08/09 10:49:26;;;;;;;4.97;4.13;;;28.90;92.80;;;;;;6242983;23;20007;-76
2022/08/09 10:52:09;;;;;;;3.75;3.45;;;29.00;92.00;;;;;;6243225;23;20004;-76
2022/08/09 10:54:35;;;;;;;4.07;3.78;;;29.10;92.10;;;;;;6244050;23;20054;-77
2022/08/09 10:57:12;;;;;;;5.30;4.00;;;29.00;91.20;;;;;;6215954;23;20332;-76
2022/08/09 10:59:39;;;;;;;3.72;3.53;;;29.10;90.00;;;;;;6242990;23;20443;-76
2022/08/09 11:02:07;;;;;;;3.85;3.53;;;29.20;90.60;;;;;;6215648;23;20026;-77
2022/08/09 11:04:34;;;;;;;5.32;3.50;;;29.10;90.40;;;;;;6243671;23;20007;-76
2022/08/09 11:07:02;;;;;;;4.25;3.65;;;29.20;91.20;;;;;;6242827;23;20011;-76
2022/08/09 11:09:37;;;;;;;4.00;3.63;;;29.20;88.40;;;;;;6215657;23;20004;-76
2022/08/09 11:12:23;;;;;;;5.30;3.63;;;29.30;90.00;;;;;;6242930;23;20454;-76
2022/08/09 11:14:53;;;;;;;3.50;3.25;;;29.30;88.00;;;;;;6215696;23;20004;-76
2022/08/09 11:17:19;;;;;;;4.63;4.10;;;29.30;89.50;;;;;;6242903;23;20004;-76
2022/08/09 11:20:08;;;;;;;3.60;3.40;;;29.40;90.00;;;;;;6243241;23;20636;-76
2022/08/09 11:22:43;;;;;;;3.83;3.63;;;29.40;90.50;;;;;;6215690;23;20008;-76
2022/08/09 11:25:11;;;;;;;4.35;3.47;;;29.50;88.60;;;;;;6243331;23;20004;-76
2022/08/09 11:27:41;;;;;;;4.90;4.53;;;29.70;89.10;;;;;;6242830;23;20007;-76
2022/08/09 11:30:08;;;;;;;4.22;3.92;;;29.70;87.60;;;;;;6215217;23;20083;-76
2022/08/09 11:32:49;;;;;;;3.58;3.35;;;29.70;90.20;;;;;;6244738;23;20043;-76
2022/08/09 11:35:38;;;;;;;3.78;3.47;;;29.80;89.80;;;;;;6220287;23;20087;-76
2022/08/09 11:38:23;;;;;;;3.75;3.50;;;30.10;89.80;;;;;;6246837;23;20024;-82
2022/08/09 11:40:53;;;;;;;4.00;3.35;;;30.20;88.40;;;;;;6246763;23;20000;-82
2022/08/09 11:43:25;;;;;;;3.53;3.33;;;30.10;87.30;;;;;;6247129;23;20000;-82
2022/08/09 11:45:59;;;;;;;3.80;3.42;;;30.10;88.20;;;;;;6246997;23;20011;-81
2022/08/09 11:48:28;;;;;;;3.60;3.40;;;30.10;86.70;;;;;;6246966;23;20000;-81
2022/08/09 11:50:57;;;;;;;3.80;3.50;;;30.20;86.20;;;;;;6220004;23;20575;-82
2022/08/09 11:53:34;;;;;;;3.65;3.35;;;30.20;86.60;;;;;;6220105;23;20040;-82
2022/08/09 11:56:27;;;;;;;4.05;3.30;;;30.50;88.90;;;;;;6220115;23;20432;-82
2022/08/09 11:58:59;;;;;;;5.35;3.50;;;30.50;84.60;;;;;;6246651;23;20000;-81
2022/08/09 12:01:35;;;;;;;3.72;3.53;;;30.60;85.30;;;;;;6246486;23;20004;-82
2022/08/09 12:04:04;;;;;;;3.90;3.67;;;30.60;86.40;;;;;;6246692;23;20000;-82
2022/08/09 12:06:31;;;;;;;5.20;3.20;;;30.90;85.10;;;;;;6246948;23;20582;-82
2022/08/09 12:08:58;;;;;;;6.13;3.67;;;30.90;85.30;;;;;;6246667;23;20365;-82
2022/08/09 12:11:26;;;;;;;3.47;3.28;;;30.90;85.60;;;;;;6219827;23;20360;-82
2022/08/09 12:14:12;;;;;;;5.05;3.17;;;31.00;84.60;;;;;;6217056;23;20018;-81
2022/08/09 12:16:40;;;;;;;7.25;3.55;;;31.00;84.20;;;;;;6243308;23;20065;-81
2022/08/09 12:19:11;;;;;;;3.90;3.60;;;31.10;84.00;;;;;;6243678;23;20489;-81
2022/08/09 12:21:43;;;;;;;3.90;3.60;;;31.20;83.70;;;;;;6216136;23;20012;-81
2022/08/09 12:24:10;;;;;;;3.58;3.33;;;31.20;83.20;;;;;;6216459;23;20007;-81
2022/08/09 12:26:44;;;;;;;3.78;3.58;;;31.20;82.80;;;;;;6243888;23;20001;-81
2022/08/09 12:29:18;;;;;;;3.67;3.38;;;31.30;83.30;;;;;;6243447;23;20005;-81
2022/08/09 12:31:45;;;;;;;3.60;3.30;;;31.40;83.60;;;;;;6243300;23;20016;-81
2022/08/09 12:34:12;;;;;;;4.00;3.60;;;31.50;85.40;;;;;;6242803;23;20063;-81
2022/08/09 12:36:55;;;;;;;3.97;3.78;;;31.60;81.80;;;;;;6216923;23;20004;-82
2022/08/09 12:39:21;;;;;;;4.68;4.28;;;31.60;78.80;;;;;;6245641;23;20000;-82
2022/08/09 12:41:48;;;;;;;4.00;3.30;;;31.60;78.80;;;;;;6246408;23;20087;-81
2022/08/09 12:44:14;;;;;;;5.38;3.70;;;31.60;79.20;;;;;;6246297;23;20428;-82
2022/08/09 12:46:45;;;;;;;5.07;3.38;;;31.70;80.30;;;;;;6246373;23;20491;-82
2022/08/09 12:49:11;;;;;;;4.70;4.28;;;31.70;75.90;;;;;;6240795;23;20439;-81
2022/08/09 12:51:37;;;;;;;3.92;3.63;;;31.50;76.00;;;;;;6243407;23;20000;-82
2022/08/09 12:54:05;;;;;;;4.88;4.57;;;31.50;78.70;;;;;;6216242;23;20004;-78
2022/08/09 12:56:31;;;;;;;5.15;4.70;;;31.20;79.20;;;;;;6243352;23;20004;-82
2022/08/09 12:59:10;;;;;;;5.72;4.40;;;31.20;79.70;;;;;;6243120;23;20007;-83